createdAt,value
2023-04-20T00:01:33.719Z,5.47
2023-04-20T00:04:00.507Z,5.82
2023-04-20T00:06:29.880Z,5.25
2023-04-20T00:08:56.897Z,5.65
2023-04-20T00:11:23.413Z,5.78
2023-04-20T00:13:50.060Z,5.60
2023-04-20T00:16:17.097Z,6.00
2023-04-20T00:18:46.391Z,6.50
2023-04-20T00:21:15.886Z,5.78
2023-04-20T00:26:09.332Z,5.93
2023-04-20T00:28:36.109Z,5.53
2023-04-20T00:31:03.351Z,5.88
2023-04-20T00:33:29.911Z,5.78
2023-04-20T00:35:56.674Z,5.70
2023-04-20T00:38:23.276Z,5.80
2023-04-20T00:45:57.272Z,5.80
2023-04-20T00:53:19.362Z,5.30
2023-04-20T00:55:46.779Z,5.03
2023-04-20T01:00:40.649Z,4.90
2023-04-20T01:05:35.558Z,5.38
2023-04-20T01:12:55.564Z,5.95
2023-04-20T01:15:22.234Z,5.95
2023-04-20T01:17:52.404Z,5.68
2023-04-20T01:22:49.130Z,6.30
2023-04-20T01:25:17.621Z,6.63
2023-04-20T01:27:44.888Z,6.70
2023-04-20T01:37:33.682Z,6.60
2023-04-20T01:40:00.692Z,6.75
2023-04-20T01:42:27.482Z,6.60
2023-04-20T01:44:54.266Z,6.63
2023-04-20T01:47:20.957Z,6.80
2023-04-20T01:52:14.357Z,6.40
2023-04-20T01:57:07.906Z,6.45
2023-04-20T01:59:34.609Z,6.95
2023-04-20T02:02:01.330Z,6.47
2023-04-20T02:06:54.406Z,5.78
2023-04-20T02:11:47.701Z,5.43
2023-04-20T02:14:14.437Z,5.63
2023-04-20T02:16:42.600Z,5.03
2023-04-20T02:19:09.924Z,5.18
2023-04-20T02:24:03.384Z,5.55
2023-04-20T02:26:30.101Z,6.50
2023-04-20T02:28:58.460Z,5.25
2023-04-20T02:31:25.330Z,5.65
2023-04-20T02:36:18.821Z,5.60
2023-04-20T02:41:12.314Z,6.20
2023-04-20T02:43:38.946Z,5.82
2023-04-20T02:46:05.863Z,5.47
2023-04-20T02:50:59.285Z,5.82
2023-04-20T02:53:25.945Z,6.38
2023-04-20T02:58:19.219Z,6.20
2023-04-20T03:00:46.047Z,6.20
2023-04-20T03:03:12.892Z,7.00
2023-04-20T03:08:07.396Z,6.63
2023-04-20T03:15:27.348Z,6.32
2023-04-20T03:17:54.047Z,6.97
2023-04-20T03:20:20.915Z,6.35
2023-04-20T03:22:47.543Z,6.35
2023-04-20T03:25:14.309Z,7.40
2023-04-20T03:27:41.084Z,6.82
2023-04-20T03:32:35.126Z,7.55
2023-04-20T03:37:28.552Z,7.15
2023-04-20T03:39:55.417Z,7.35
2023-04-20T03:42:22.051Z,7.97
2023-04-20T03:47:15.884Z,7.50
2023-04-20T03:52:09.284Z,7.68
2023-04-20T03:54:35.901Z,7.20
2023-04-20T03:57:02.645Z,8.55
2023-04-20T03:59:29.217Z,7.90
2023-04-20T04:01:56.716Z,7.95
2023-04-20T04:04:23.810Z,7.68
2023-04-20T04:06:50.857Z,7.80
2023-04-20T04:09:20.239Z,8.50
2023-04-20T04:11:46.986Z,7.82
2023-04-20T04:14:13.676Z,7.75
2023-04-20T04:19:07.201Z,8.68
2023-04-20T04:21:34.789Z,8.45
2023-04-20T04:24:01.684Z,8.25
2023-04-20T04:26:28.798Z,7.88
2023-04-20T04:31:22.016Z,8.75
2023-04-20T04:33:49.886Z,8.23
2023-04-20T04:38:46.148Z,8.23
2023-04-20T04:41:13.006Z,8.40
2023-04-20T04:43:40.988Z,8.40
2023-04-20T04:46:14.255Z,8.35
2023-04-20T04:51:09.686Z,8.55
2023-04-20T04:53:37.107Z,9.38
2023-04-20T04:56:25.628Z,7.95
2023-04-20T05:01:18.716Z,8.48
2023-04-20T05:03:45.345Z,8.90
2023-04-20T05:06:11.831Z,9.63
2023-04-20T05:08:38.296Z,8.85
2023-04-20T05:11:04.852Z,8.60
2023-04-20T05:13:31.534Z,9.02
2023-04-20T05:15:58.146Z,8.77
2023-04-20T05:23:22.709Z,9.82
2023-04-20T05:35:36.123Z,8.98
2023-04-20T05:38:06.241Z,8.60
2023-04-20T05:45:29.242Z,8.32
2023-04-20T05:55:22.632Z,8.80
2023-04-20T06:15:10.722Z,7.90
2023-04-20T06:17:40.481Z,7.57
2023-04-20T06:20:09.296Z,7.50
2023-04-20T06:22:36.353Z,8.32
2023-04-20T06:25:06.464Z,7.72
2023-04-20T06:27:33.052Z,7.80
2023-04-20T06:29:59.683Z,7.55
2023-04-20T06:37:23.110Z,5.95
2023-04-20T06:42:27.730Z,5.75
2023-04-20T06:44:56.164Z,5.50
2023-04-20T06:52:15.664Z,4.95
2023-04-20T06:54:42.206Z,5.50
2023-04-20T07:02:11.872Z,5.65
2023-04-20T07:04:38.379Z,5.53
2023-04-20T07:07:04.962Z,5.90
2023-04-20T07:09:31.562Z,5.68
2023-04-20T07:11:58.071Z,5.22
2023-04-20T07:14:24.613Z,5.60
2023-04-20T07:16:54.849Z,5.63
2023-04-20T07:21:48.104Z,5.80
2023-04-20T07:29:07.614Z,5.55
2023-04-20T07:31:35.391Z,5.57
2023-04-20T07:34:02.304Z,5.40
2023-04-20T07:36:30.038Z,5.00
2023-04-20T07:38:56.970Z,4.85
2023-04-20T07:41:23.774Z,4.82
2023-04-20T07:43:50.449Z,5.25
2023-04-20T07:46:21.410Z,4.78
2023-04-20T07:48:49.047Z,5.22
2023-04-20T07:51:15.924Z,5.45
2023-04-20T07:53:44.078Z,5.15
2023-04-20T08:01:05.961Z,4.63
2023-04-20T08:03:36.397Z,4.93
2023-04-20T08:10:58.689Z,5.05
2023-04-20T08:15:52.526Z,5.22
2023-04-20T08:18:21.184Z,4.90
2023-04-20T08:23:14.358Z,5.57
2023-04-20T08:28:19.285Z,4.80
2023-04-20T08:30:47.159Z,4.80
2023-04-20T08:35:41.019Z,5.30
2023-04-20T08:55:31.402Z,5.80
2023-04-20T08:57:57.988Z,5.22
2023-04-20T09:00:24.528Z,5.90
2023-04-20T09:02:59.197Z,5.55
2023-04-20T09:07:56.793Z,5.82
2023-04-20T09:10:24.422Z,5.80
2023-04-20T09:20:29.886Z,5.95
2023-04-20T09:23:10.998Z,6.78
2023-04-20T09:25:38.020Z,5.03
2023-04-20T09:28:05.192Z,6.47
2023-04-20T09:30:46.042Z,5.53
2023-04-20T09:33:14.406Z,6.30
2023-04-20T09:35:42.648Z,5.55
2023-04-20T09:38:11.022Z,6.88
2023-04-20T09:40:38.224Z,6.10
2023-04-20T09:43:10.662Z,5.50
2023-04-20T09:45:38.791Z,5.72
2023-04-20T09:48:07.770Z,6.45
2023-04-20T09:50:48.607Z,5.93
2023-04-20T09:55:49.361Z,6.10
2023-04-20T09:58:20.289Z,6.93
2023-04-20T10:00:46.798Z,5.97
2023-04-20T10:03:17.986Z,7.50
2023-04-20T10:05:44.591Z,6.20
2023-04-20T10:08:11.373Z,5.90
2023-04-20T10:10:48.955Z,5.90
2023-04-20T10:13:19.081Z,6.32
2023-04-20T10:15:45.587Z,6.88
2023-04-20T10:18:19.356Z,5.88
2023-04-20T10:20:46.608Z,6.25
2023-04-20T10:23:18.727Z,6.18
2023-04-20T10:25:59.675Z,7.05
2023-04-20T10:28:37.432Z,5.93
2023-04-20T10:33:30.199Z,5.78
2023-04-20T10:41:12.924Z,5.93
2023-04-20T10:51:30.648Z,5.72
2023-04-20T10:54:08.285Z,6.15
2023-04-20T10:56:42.815Z,5.60
2023-04-20T11:01:38.481Z,5.68
2023-04-20T11:04:12.513Z,5.00
2023-04-20T11:06:43.812Z,5.22
2023-04-20T11:09:22.752Z,4.82
2023-04-20T11:12:00.479Z,5.28
2023-04-20T11:14:27.428Z,5.10
2023-04-20T11:16:55.858Z,5.32
2023-04-20T11:21:57.141Z,5.53
2023-04-20T11:24:28.967Z,5.22
2023-04-20T11:26:58.099Z,5.25
2023-04-20T11:29:31.221Z,5.45
2023-04-20T11:39:33.641Z,4.97
2023-04-20T11:42:01.886Z,5.10
2023-04-20T11:56:46.822Z,4.60
2023-04-20T12:14:06.968Z,5.07
2023-04-20T12:16:33.659Z,5.32
2023-04-20T12:19:00.380Z,5.57
2023-04-20T12:21:27.443Z,7.50
2023-04-20T12:28:48.204Z,5.20
2023-04-20T12:31:14.857Z,4.88
2023-04-20T12:33:41.406Z,5.40
2023-04-20T12:36:12.880Z,5.30
2023-04-20T12:38:39.527Z,5.25
2023-04-20T12:41:05.992Z,5.22
2023-04-20T12:43:32.709Z,5.10
2023-04-20T12:45:59.773Z,5.20
2023-04-20T12:48:26.506Z,5.45
2023-04-20T12:53:20.446Z,5.07
2023-04-20T13:00:42.053Z,5.93
2023-04-20T13:05:37.204Z,5.25
2023-04-20T13:08:03.957Z,5.25
2023-04-20T13:10:30.975Z,5.30
2023-04-20T13:12:57.858Z,5.00
2023-04-20T13:15:35.549Z,5.28
2023-04-20T13:18:05.903Z,5.72
2023-04-20T13:20:32.668Z,5.63
2023-04-20T13:23:01.065Z,5.28
2023-04-20T13:25:30.103Z,5.50
2023-04-20T13:27:56.857Z,5.13
2023-04-20T13:30:24.713Z,5.18
2023-04-20T13:32:51.736Z,5.47
2023-04-20T13:35:18.777Z,5.15
2023-04-20T13:40:12.761Z,6.25
2023-04-20T13:42:39.422Z,5.03
2023-04-20T13:45:10.280Z,5.60
2023-04-20T13:47:38.900Z,6.43
2023-04-20T13:50:07.619Z,5.50
2023-04-20T13:52:34.652Z,5.97
2023-04-20T13:55:01.185Z,6.05
2023-04-20T13:57:37.638Z,5.13
2023-04-20T14:00:05.298Z,5.57
2023-04-20T14:02:32.975Z,5.55
2023-04-20T14:05:00.190Z,5.88
2023-04-20T14:07:26.948Z,5.75
2023-04-20T14:12:23.234Z,5.82
2023-04-20T14:14:50.251Z,5.70
2023-04-20T14:24:36.326Z,6.97
2023-04-20T14:27:03.412Z,6.28
2023-04-20T14:29:30.037Z,6.22
2023-04-20T14:31:56.707Z,6.22
2023-04-20T14:36:49.653Z,7.25
2023-04-20T14:39:16.378Z,10.65
2023-04-20T14:54:04.570Z,6.55
2023-04-20T14:56:31.277Z,6.20
2023-04-20T14:58:59.763Z,5.85
2023-04-20T15:01:27.645Z,6.20
2023-04-20T15:03:54.584Z,6.22
2023-04-20T15:13:42.476Z,6.32
2023-04-20T15:21:02.855Z,6.40
2023-04-20T15:23:30.788Z,6.53
2023-04-20T15:25:57.987Z,6.65
2023-04-20T15:28:24.834Z,6.38
2023-04-20T15:30:52.761Z,7.18
2023-04-20T15:35:46.410Z,5.60
2023-04-20T15:38:12.914Z,6.38
2023-04-20T15:40:39.708Z,6.50
2023-04-20T15:43:06.652Z,5.95
2023-04-20T15:48:01.040Z,6.35
2023-04-20T15:50:27.751Z,6.20
2023-04-20T15:55:26.496Z,6.32
2023-04-20T15:57:58.278Z,5.80
2023-04-20T16:00:25.046Z,5.95
2023-04-20T16:02:53.785Z,5.75
2023-04-20T16:05:21.441Z,6.05
2023-04-20T16:07:47.999Z,6.10
2023-04-20T16:10:14.593Z,5.93
2023-04-20T16:12:41.088Z,6.32
2023-04-20T16:15:11.351Z,5.90
2023-04-20T16:17:38.166Z,5.65
2023-04-20T16:22:35.072Z,5.93
2023-04-20T16:25:01.969Z,5.93
2023-04-20T16:27:28.626Z,6.05
2023-04-20T16:29:55.814Z,8.18
2023-04-20T16:32:26.395Z,5.88
2023-04-20T16:34:54.375Z,5.88
2023-04-20T16:42:19.540Z,12.35
2023-04-20T16:44:46.021Z,9.10
2023-04-20T16:49:39.451Z,7.57
2023-04-20T16:52:06.010Z,8.25
2023-04-20T16:54:32.482Z,6.72
2023-04-20T16:59:25.480Z,7.40
2023-04-20T17:09:15.851Z,7.30
2023-04-20T17:11:42.496Z,6.57
2023-04-20T17:14:09.328Z,6.68
2023-04-20T17:16:35.928Z,6.68
2023-04-20T17:21:30.230Z,6.30
2023-04-20T17:23:57.032Z,8.93
2023-04-20T17:26:23.822Z,10.02
2023-04-20T17:28:50.660Z,9.30
2023-04-20T17:33:48.688Z,6.95
2023-04-20T17:38:43.363Z,7.35
2023-04-20T17:41:10.185Z,7.40
2023-04-20T17:43:40.341Z,7.57
2023-04-20T17:46:07.752Z,7.85
2023-04-20T17:48:34.525Z,7.72
2023-04-20T17:51:01.186Z,7.95
2023-04-20T17:53:28.676Z,7.65
2023-04-20T17:55:55.254Z,8.00
2023-04-20T17:58:21.832Z,7.85
2023-04-20T18:00:48.557Z,7.63
2023-04-20T18:05:42.535Z,8.38
2023-04-20T18:08:10.290Z,9.93
2023-04-20T18:10:37.774Z,13.45
2023-04-20T18:13:04.879Z,7.65
2023-04-20T18:15:31.658Z,8.45
2023-04-20T18:27:46.459Z,9.05
2023-04-20T18:32:41.337Z,8.52
2023-04-20T18:37:35.735Z,9.98
2023-04-20T18:40:02.277Z,11.30
2023-04-20T18:42:29.055Z,11.32
2023-04-20T18:44:56.096Z,10.32
2023-04-20T18:52:19.380Z,9.30
2023-04-20T18:54:46.798Z,9.13
2023-04-20T18:57:13.485Z,9.25
2023-04-20T18:59:42.861Z,9.68
2023-04-20T19:07:03.189Z,10.23
2023-04-20T19:11:57.197Z,9.75
2023-04-20T19:14:23.811Z,9.55
2023-04-20T19:19:16.959Z,9.98
2023-04-20T19:21:43.405Z,8.93
2023-04-20T19:24:12.370Z,9.25
2023-04-20T19:26:38.980Z,9.70
2023-04-20T19:31:36.956Z,10.15
2023-04-20T19:34:04.729Z,9.73
2023-04-20T19:36:32.208Z,10.00
2023-04-20T19:38:58.888Z,10.98
2023-04-20T19:41:26.171Z,10.93
2023-04-20T19:43:53.248Z,10.65
2023-04-20T19:51:13.312Z,10.50
2023-04-20T19:53:39.894Z,10.82
2023-04-20T19:56:06.824Z,11.38
2023-04-20T19:58:33.489Z,10.98
2023-04-20T20:01:00.242Z,10.43
2023-04-20T20:05:54.423Z,11.73
2023-04-20T20:10:52.863Z,11.73
2023-04-20T20:13:19.589Z,11.32
2023-04-20T20:15:46.205Z,10.77
2023-04-20T20:20:40.854Z,11.68
2023-04-20T20:25:53.553Z,11.45
2023-04-20T20:30:46.960Z,10.85
2023-04-20T20:35:45.525Z,12.27
2023-04-20T20:38:12.275Z,11.65
2023-04-20T20:40:40.235Z,11.88
2023-04-20T20:43:06.990Z,11.60
2023-04-20T20:45:33.938Z,12.02
2023-04-20T20:50:52.527Z,13.05
2023-04-20T20:53:20.590Z,12.68
2023-04-20T20:58:13.765Z,14.10
2023-04-20T21:00:40.687Z,13.23
2023-04-20T21:10:30.964Z,14.80
2023-04-20T21:15:27.029Z,14.63
2023-04-20T21:25:14.810Z,13.25
2023-04-20T21:30:08.574Z,13.43
2023-04-20T21:32:35.568Z,13.68
2023-04-20T21:35:02.286Z,13.45
2023-04-20T21:37:28.933Z,17.80
2023-04-20T21:39:57.146Z,14.35
2023-04-20T21:42:23.759Z,14.20
2023-04-20T21:44:50.478Z,17.50
2023-04-20T21:49:43.876Z,13.57
2023-04-20T21:52:11.019Z,13.80
2023-04-20T21:54:38.016Z,13.90
2023-04-20T21:57:04.693Z,13.55
2023-04-20T21:59:31.289Z,13.63
2023-04-20T22:06:55.623Z,13.10
2023-04-20T22:09:22.932Z,13.32
2023-04-20T22:11:50.231Z,15.40
2023-04-20T22:14:17.278Z,12.77
2023-04-20T22:19:10.444Z,12.48
2023-04-20T22:21:37.166Z,13.13
2023-04-20T22:26:30.687Z,12.85
2023-04-20T22:31:23.720Z,14.20
2023-04-20T22:33:50.201Z,13.18
2023-04-20T22:38:43.907Z,13.75
2023-04-20T22:41:10.707Z,13.50
2023-04-20T22:43:37.272Z,13.93
2023-04-20T22:46:06.536Z,17.08
2023-04-20T22:48:33.173Z,14.18
2023-04-20T22:51:00.727Z,13.90
2023-04-20T22:53:29.873Z,13.70
2023-04-20T22:56:06.751Z,14.02
2023-04-20T23:01:00.297Z,13.70
2023-04-20T23:03:27.312Z,14.10
2023-04-20T23:11:00.004Z,13.32
2023-04-20T23:13:29.875Z,12.40
2023-04-20T23:15:56.523Z,13.18
2023-04-20T23:20:49.608Z,13.60
2023-04-20T23:23:16.303Z,13.50
2023-04-20T23:25:42.827Z,14.27
2023-04-20T23:28:09.479Z,14.40
2023-04-20T23:30:36.508Z,13.98
2023-04-20T23:33:03.227Z,13.10
2023-04-20T23:37:58.184Z,13.38
2023-04-20T23:45:18.543Z,13.85
2023-04-20T23:47:45.434Z,14.05
2023-04-20T23:52:38.611Z,14.63
2023-04-20T23:57:32.272Z,13.82
2023-04-20T23:59:58.904Z,13.68
